• Join FlightAware (Why Join?)
  • Login
  • US Flag 
12:34PM EST


 

Airport Tracker/Info


-or-


 

Live Flight TrackerFlight Track Log ✈ CTL17 ✈ 07-May-2013 ✈ KBKL - KPTK

Flight Track Log - Related Links

Times and Time Zones

All times are in EDT time to prevent confusion due to time zone crossing. See the CTL17 flight status page for this flight to view local times or setup timezone preferences in your user account.

Time Position Orientation Groundspeed Altitude Reporting Facility
EDT Latitude Longitude Course Direction KTS MPH feet Rate Location/Type
06:55PM 41.5481 -81.6903 350° North 138 159 1,800  Level Cleveland Center
06:56PM 41.5728 -81.7294 310° West 155 178 2,800 900 Climbing Cleveland Center
06:57PM 41.5847 -81.7825 287° West 151 174 3,700 780 Climbing Cleveland Center
06:58PM 41.6008 -81.8356 292° West 159 183 4,400 600 Climbing Cleveland Center
06:59PM 41.6211 -81.8914 296° West 162 186 5,000 540 Climbing Cleveland Center
07:00PM 41.6369 -81.9472 291° West 169 194 5,600 540 Climbing Cleveland Center
07:01PM 41.6572 -82.0117 293° West 167 192 6,100 240 Climbing Cleveland Center
07:02PM 41.6772 -82.0733 293° West 180 207 6,200  Climbing Cleveland Center
07:03PM 41.6972 -82.1350 293° West 188 216 6,100 -60 Descending Cleveland Center
07:04PM 41.7192 -82.1967 296° West 184 212 6,100 -60 Level Cleveland Center
07:05PM 41.7392 -82.2583 294° West 187 215 6,000 -60 Descending Cleveland Center
07:06PM 41.7631 -82.3342 293° West 185 213 6,000  Level Cleveland Center
07:07PM 41.7872 -82.3906 300° West 185 213 6,000  Level Cleveland Center
07:08PM 41.8089 -82.4692 290° West 184 212 6,100  Climbing Cleveland Center
07:09PM 41.8244 -82.5364 287° West 184 212 6,000 -60 Descending Cleveland Center
07:10PM 41.8442 -82.5983 293° West 187 215 6,000  Level Cleveland Center
07:11PM 41.8917 -82.6250 337° Northwest 178 205 6,100  Climbing Cleveland Center
07:12PM 41.9331 -82.6486 337° Northwest 179 206 6,100 -300 Level Cleveland Center
07:13PM 41.9786 -82.6697 341° North 186 214 5,600 -600 Descending Cleveland Center
07:14PM 42.0300 -82.6964 339° North 202 232 5,000 -360 Descending Cleveland Center
07:15PM 42.0756 -82.7233 336° Northwest 180 207 5,000  Level Cleveland Center
07:16PM 42.1269 -82.7531 337° Northwest 174 200 5,100  Climbing Cleveland Center
07:17PM 42.1725 -82.7769 339° North 175 201 5,100  Level Cleveland Center
07:19PM 42.2219 -82.8039 338° Northwest 175 201 5,100 -60 Level Cleveland Center
07:19PM 42.2503 -82.8469 312° West 178 205 5,000  Descending Cleveland Center
07:20PM 42.2869 -82.8958 315° West 176 203 5,100 -300 Climbing Cleveland Center
07:21PM 42.3214 -82.9336 321° Northwest 192 221 4,500 -780 Descending Cleveland Center
07:22PM 42.3686 -82.9747 327° Northwest 196 226 3,600 -720 Descending Cleveland Center
07:23PM 42.4136 -83.0186 324° Northwest 193 222 3,100 -300 Descending Cleveland Center
07:24PM 42.4522 -83.0653 318° Northwest 182 209 3,000 -60 Descending Cleveland Center
07:26PM 42.4925 -83.1261 312° West 176 203 3,000  Level Cleveland Center
07:27PM 42.5206 -83.1750 308° West 171 197 3,100 -120 Climbing Cleveland Center
07:28PM 42.5486 -83.2325 304° West 179 206 2,800 -300 Descending Cleveland Center
07:29PM 42.5744 -83.2844 304° West 174 200 2,600 -240 Descending Cleveland Center
07:30PM 42.6042 -83.3419 305° West 171 197 2,400 -240 Descending Cleveland Center
07:31PM 42.6342 -83.3997 305° West 168 193 2,100 -300 Descending Cleveland Center
07:32PM 42.6453 -83.4539 286° West 130 150 1,800 -300 Descending Cleveland Center
07:34PM 42.6500 -83.4167 304° West  Level FlightAware Approximate
07:41PM 42.6656 -83.4205 304° West  Level Estimated
07:42PM 42.6656 -83.4205 304° West  Level Estimated